Latest Weather Observations for Bunbury

IDW60801

Issued at 7:33 am WST Tuesday 30 August 2016 (issued every 30 minutes, with the page automatically refreshed every 10 minutes)

About weather observations | Map of weather stations | Latest weather observations for WA | Other Formats
Station Details ID: 009965 Name: BUNBURY Lat: -33.36 Lon: 115.64 Height: 5.2 m
Data from the previous 72 hours. | See also: Recent months at Bunbury
Date/Time
WST
Temp
°C
App
Temp
°C
Dew
Point
°C
Rel
Hum
%
Delta-T
°C
Wind Press
QNH
hPa
Press
MSL
hPa
Rain since
9am
mm
Dir  Spd
km/h
Gust
km/h
Spd
kts
Gust
kts
30/07:30am 8.6 6.3 5.5 81 1.4 ENE 7 9 4 5 1017.5 1017.4 0.0
30/07:00am 7.3 5.4 5.0 85 1.0 ENE 4 6 2 3 1017.5 1017.4 0.0
30/06:30am 7.7 5.5 5.2 84 1.1 NE 6 6 3 3 1017.4 1017.3 0.0
30/06:00am 8.1 5.9 5.4 83 1.2 NE 6 7 3 4 1017.3 1017.2 0.0
30/05:30am 8.7 7.0 5.8 82 1.3 NE 4 6 2 3 1017.1 1017.0 0.0
30/05:00am 9.0 6.9 5.9 81 1.4 ENE 6 7 3 4 1016.9 1016.8 0.0
30/04:30am 9.3 7.6 6.0 80 1.5 E 4 7 2 4 1016.7 1016.6 0.0
30/04:00am 10.1 9.2 6.1 76 1.8 CALM 0 2 0 1 1016.6 1016.5 0.0
30/03:30am 9.9 8.3 6.4 79 1.6 NE 4 6 2 3 1016.6 1016.5 0.0
30/03:00am 10.2 8.6 6.5 78 1.7 NNE 4 6 2 3 1016.8 1016.7 0.0
30/02:30am 9.9 8.3 6.4 79 1.6 E 4 6 2 3 1017.0 1016.9 0.0
30/02:00am 10.1 9.2 6.1 76 1.8 CALM 0 0 0 0 1017.2 1017.1 0.0
30/01:30am 10.2 9.0 6.4 77 1.8 WNW 2 4 1 2 1017.5 1017.4 0.0
30/01:00am 10.7 9.9 6.5 75 2.0 CALM 0 0 0 0 1017.7 1017.6 0.0
30/12:30am 10.9 10.1 6.5 74 2.1 CALM 0 2 0 1 1017.7 1017.6 0.0
30/12:00am 11.0 9.8 6.6 74 2.1 SE 2 6 1 3 1017.8 1017.7 0.0
 
Date/Time
WST
Temp
°C
App
Temp
°C
Dew
Point
°C
Rel
Hum
%
Delta-T
°C
Wind Press
QNH
hPa
Press
MSL
hPa
Rain since
9am
mm
Dir  Spd
km/h
Gust
km/h
Spd
kts
Gust
kts
29/11:30pm 11.4 9.7 6.1 70 2.5 SSE 4 6 2 3 1017.9 1017.8 0.0
29/11:00pm 11.3 9.7 7.8 79 1.7 SSW 6 7 3 4 1018.0 1018.0 0.0
29/10:30pm 11.5 9.9 8.0 79 1.7 S 6 9 3 5 1018.2 1018.2 0.0
29/10:00pm 11.4 9.6 8.1 80 1.6 S 7 9 4 5 1018.1 1018.1 0.0
29/09:30pm 11.6 9.8 7.9 78 1.8 S 7 11 4 6 1018.0 1018.0 0.0
29/09:00pm 11.7 9.4 7.6 76 2.0 S 9 13 5 7 1018.0 1018.0 0.0
29/08:30pm 12.2 10.3 7.5 73 2.3 S 7 11 4 6 1017.8 1017.7 0.0
29/08:00pm 12.5 10.6 7.6 72 2.4 S 7 11 4 6 1017.7 1017.6 0.0
29/07:30pm 12.7 11.0 7.6 71 2.5 S 6 7 3 4 1017.3 1017.2 0.0
29/07:00pm 13.0 11.2 7.2 68 2.8 S 6 7 3 4 1017.1 1017.0 0.0
29/06:30pm 13.4 11.5 6.7 64 3.2 S 6 9 3 5 1016.6 1016.5 0.0
29/06:00pm 13.8 11.3 6.7 62 3.4 SW 9 15 5 8 1016.5 1016.4 0.0
29/05:30pm 14.2 12.3 6.8 61 3.6 SSW 6 9 3 5 1016.2 1016.1 0.0
29/05:00pm 14.1 10.9 6.9 62 3.5 S 13 20 7 11 1016.1 1016.0 0.0
29/04:30pm 15.3 13.5 7.1 58 4.0 S 6 9 3 5 1015.9 1015.8 0.0
29/04:00pm 14.5 11.2 6.3 58 3.9 SSW 13 19 7 10 1015.8 1015.7 0.0
29/03:30pm 14.6 11.0 6.7 59 3.8 S 15 20 8 11 1015.6 1015.5 0.0
29/03:00pm 14.7 11.5 6.8 59 3.8 S 13 24 7 13 1015.7 1015.6 0.0
29/02:30pm 15.1 12.3 6.9 58 4.0 S 11 17 6 9 1015.7 1015.6 0.0
29/02:00pm 14.9 12.0 6.7 58 4.0 SSW 11 20 6 11 1015.7 1015.6 0.0
29/01:30pm 14.7 11.0 6.3 57 4.0 SSW 15 22 8 12 1016.0 1015.9 0.0
29/01:00pm 15.0 12.0 7.5 61 3.7 S 13 20 7 11 1016.1 1016.0 0.0
29/12:30pm 14.4 10.7 6.5 59 3.8 SSW 15 20 8 11 1016.4 1016.3 0.0
29/12:00pm 14.2 11.6 7.7 65 3.2 S 11 17 6 9 1016.6 1016.5 0.0
29/11:30am 14.1 10.6 7.2 63 3.4 SSE 15 22 8 12 1016.9 1016.8 0.0
29/11:00am 14.5 10.2 7.1 61 3.6 S 19 28 10 15 1017.2 1017.1 0.0
29/10:30am 13.4 9.0 6.7 64 3.2 S 19 24 10 13 1017.4 1017.3 0.0
29/10:00am 13.3 9.7 8.2 71 2.5 S 17 24 9 13 1017.3 1017.2 0.0
29/09:30am 13.1 9.3 9.2 77 2.0 S 19 26 10 14 1017.2 1017.1 0.0
29/09:00am 11.8 8.4 9.2 84 1.3 S 17 22 9 12 1017.2 1017.1 0.0
29/08:30am 12.0 10.4 10.2 89 0.9 SSE 9 17 5 9 1016.9 1016.8 0.0
29/08:00am 10.8 9.6 9.6 92 0.6 S 6 11 3 6 1016.8 1016.7 0.0
29/07:30am 9.7 9.0 8.6 93 0.5 SW 2 2 1 1 1016.6 1016.5 0.0
29/07:00am 9.6 8.9 8.5 93 0.5 S 2 4 1 2 1016.2 1016.1 0.0
29/06:30am 10.1 9.5 9.0 93 0.5 S 2 6 1 3 1016.0 1015.9 0.0
29/06:00am 9.9 9.3 8.8 93 0.5 SSW 2 6 1 3 1015.6 1015.5 0.0
29/05:30am 9.5 8.4 8.4 93 0.5 SSE 4 6 2 3 1015.5 1015.4 0.0
29/05:00am 9.1 7.5 8.0 93 0.5 SSW 6 7 3 4 1015.3 1015.2 0.0
29/04:30am 8.1 7.4 7.0 93 0.5 CALM 0 2 0 1 1015.0 1014.9 0.0
29/04:00am 8.6 7.2 7.4 92 0.6 SSW 4 6 2 3 1015.2 1015.1 0.0
29/03:30am 9.1 7.5 7.9 92 0.6 SSW 6 9 3 5 1014.8 1014.7 0.0
29/03:00am 9.2 7.6 7.8 91 0.7 SW 6 7 3 4 1014.7 1014.6 0.0
29/02:30am 9.7 8.5 8.1 90 0.8 SSW 4 6 2 3 1014.7 1014.6 0.0
29/02:00am 9.8 8.2 8.1 89 0.8 S 6 9 3 5 1014.8 1014.7 0.0
29/01:30am 10.3 8.6 8.2 87 1.0 SSW 7 9 4 5 1014.8 1014.7 0.0
29/01:00am 11.2 9.2 8.8 85 1.2 S 9 15 5 8 1014.8 1014.7 0.0
29/12:30am 11.5 9.6 9.1 85 1.2 S 9 15 5 8 1014.8 1014.7 0.0
29/12:00am 11.6 8.9 9.0 84 1.3 S 13 20 7 11 1014.7 1014.6 0.0
 
Date/Time
WST
Temp
°C
App
Temp
°C
Dew
Point
°C
Rel
Hum
%
Delta-T
°C
Wind Press
QNH
hPa
Press
MSL
hPa
Rain since
9am
mm
Dir  Spd
km/h
Gust
km/h
Spd
kts
Gust
kts
28/11:30pm 11.8 9.2 9.2 84 1.3 S 13 22 7 12 1014.7 1014.6 0.0
28/11:00pm 11.8 9.2 9.2 84 1.3 SSW 13 19 7 10 1014.8 1014.7 0.0
28/10:30pm 11.7 9.5 9.4 86 1.2 SSW 11 19 6 10 1015.0 1014.9 0.0
28/10:00pm 11.6 9.1 9.7 88 1.0 S 13 19 7 10 1014.7 1014.6 0.0
28/09:30pm 11.4 9.2 9.5 88 1.0 SSW 11 15 6 8 1014.6 1014.5 0.0
28/09:00pm 11.0 9.1 9.1 88 0.9 SSW 9 13 5 7 1014.4 1014.3 0.0
28/08:30pm 11.4 9.6 9.5 88 1.0 SSW 9 13 5 7 1014.3 1014.2 0.0
28/08:00pm 11.5 9.7 9.6 88 1.0 SSW 9 15 5 8 1014.0 1013.9 0.0
28/07:30pm 11.8 9.2 9.5 86 1.2 SSW 13 24 7 13 1013.6 1013.6 0.0
28/07:00pm 11.8 9.7 9.7 87 1.1 SSW 11 15 6 8 1013.3 1013.3 0.0
28/06:30pm 11.8 8.9 9.5 86 1.2 S 15 22 8 12 1013.1 1013.1 0.0
28/06:00pm 12.3 9.1 9.9 85 1.2 SSW 17 24 9 13 1012.7 1012.7 0.0
28/05:30pm 12.4 8.3 10.0 85 1.2 S 22 32 12 17 1012.4 1012.4 0.0
28/05:00pm 13.4 8.8 9.8 79 1.8 SSW 24 39 13 21 1011.9 1011.9 0.0
28/04:30pm 13.9 9.3 9.5 75 2.3 SSW 24 35 13 19 1011.5 1011.5 0.0
28/04:13pm 14.8 9.3 9.2 69 2.9 S 28 48 15 26 1011.3 1011.3 0.0
28/04:00pm 14.1 8.2 8.9 71 2.6 S 30 46 16 25 1011.2 1011.2 0.0
28/03:38pm 15.1 9.7 9.5 69 2.9 S 28 46 15 25 1010.9 1010.9 0.0
28/03:30pm 14.8 8.9 9.2 69 2.9 SSW 30 44 16 24 1010.8 1010.8 0.0
28/03:00pm 14.6 9.8 9.0 69 2.9 S 24 41 13 22 1010.5 1010.5 0.0
28/02:30pm 15.0 10.8 9.6 70 2.8 S 22 33 12 18 1010.4 1010.4 0.0
28/02:00pm 14.3 8.9 9.5 73 2.5 S 28 39 15 21 1010.4 1010.4 0.0
28/01:30pm 15.1 10.1 9.5 69 2.9 S 26 43 14 23 1010.3 1010.3 0.0
28/01:00pm 14.5 8.9 8.9 69 2.8 S 28 43 15 23 1010.3 1010.3 0.0
28/12:30pm 14.2 7.9 8.8 70 2.7 S 32 46 17 25 1010.7 1010.7 0.0
28/12:03pm 13.8 8.2 8.8 72 2.5 S 28 46 15 25 1010.9 1010.9 0.0
28/12:00pm 13.7 7.7 8.7 72 2.5 SSW 30 46 16 25 1010.9 1010.9 0.0
28/11:30am 13.6 8.0 8.7 72 2.5 S 28 43 15 23 1011.2 1011.2 0.0
28/11:00am 13.4 7.8 8.7 73 2.4 S 28 43 15 23 1011.3 1011.3 0.0
28/10:30am 13.0 7.3 8.5 74 2.2 SSW 28 41 15 22 1011.2 1011.2 0.0
28/10:00am 12.8 7.1 8.5 75 2.1 SSW 28 44 15 24 1011.1 1011.1 0.0
28/09:30am 12.2 6.9 8.5 78 1.8 SSW 26 35 14 19 1011.0 1011.0 0.0
28/09:00am 11.9 7.0 8.4 79 1.7 SSW 24 35 13 19 1010.9 1010.9 1.2
28/08:30am 11.6 7.0 8.1 79 1.7 SSW 22 35 12 19 1010.6 1010.6 1.2
28/08:00am 10.9 6.7 8.1 83 1.4 SSW 20 28 11 15 1010.4 1010.4 1.2
28/07:30am 10.2 5.9 7.8 85 1.2 SSW 20 33 11 18 1009.8 1009.8 1.2
28/07:00am 9.9 5.8 7.7 86 1.1 SSW 19 28 10 15 1009.5 1009.5 1.2
28/06:30am 9.9 5.5 7.3 84 1.2 SSW 20 32 11 17 1009.1 1009.1 1.2
28/06:00am 9.7 5.8 7.1 84 1.2 SSW 17 30 9 16 1008.7 1008.7 1.2
28/05:30am 9.8 5.4 7.2 84 1.2 SSW 20 33 11 18 1008.5 1008.5 1.2
28/05:00am 9.8 5.3 7.1 83 1.3 SSW 20 32 11 17 1008.1 1008.1 1.2
28/04:30am 9.9 5.5 7.5 85 1.1 SSW 20 32 11 17 1007.8 1007.8 1.2
28/04:00am 10.1 5.7 7.2 82 1.4 SSW 20 32 11 17 1007.6 1007.6 1.2
28/03:30am 10.1 5.3 7.3 83 1.3 SSW 22 37 12 20 1007.4 1007.4 1.2
28/03:00am 9.9 5.5 7.3 84 1.2 SSW 20 30 11 16 1007.3 1007.3 1.2
28/02:30am 9.6 5.7 7.2 85 1.1 SW 17 24 9 13 1007.2 1007.2 1.2
28/02:00am 9.8 5.5 7.2 84 1.2 SSW 19 32 10 17 1007.1 1007.1 1.2
28/01:30am 9.8 5.9 7.2 84 1.2 SSW 17 26 9 14 1007.0 1007.0 1.2
28/01:00am 10.0 5.7 7.1 82 1.4 SSW 19 26 10 14 1006.8 1006.8 1.2
28/12:30am 10.2 6.0 7.4 83 1.3 SW 19 28 10 15 1006.5 1006.5 1.2
28/12:00am 10.5 6.1 7.4 81 1.5 SW 20 28 11 15 1006.2 1006.2 1.2
 
Date/Time
WST
Temp
°C
App
Temp
°C
Dew
Point
°C
Rel
Hum
%
Delta-T
°C
Wind Press
QNH
hPa
Press
MSL
hPa
Rain since
9am
mm
Dir  Spd
km/h
Gust
km/h
Spd
kts
Gust
kts
27/11:30pm 10.7 6.4 7.9 83 1.4 SW 20 32 11 17 1006.0 1006.0 1.2
27/11:00pm 10.9 6.6 8.0 82 1.4 SW 20 33 11 18 1005.8 1005.8 1.2
27/10:30pm 10.9 6.6 8.0 82 1.4 SSW 20 33 11 18 1005.5 1005.5 1.2
27/10:00pm 11.0 6.4 8.1 82 1.4 SW 22 37 12 20 1005.5 1005.5 1.2
27/09:30pm 11.0 5.6 8.1 82 1.4 SW 26 39 14 21 1005.3 1005.3 1.2
27/09:00pm 11.1 6.5 8.0 81 1.5 SW 22 37 12 20 1005.1 1005.1 1.2
27/08:30pm 11.0 5.9 7.7 80 1.6 SW 24 39 13 21 1004.8 1004.8 1.2
27/08:00pm 11.3 6.2 7.6 78 1.8 SW 24 41 13 22 1004.5 1004.5 1.2
27/07:34pm 11.5 5.7 7.8 78 1.8 SW 28 46 15 25 1004.1 1004.1 1.2
27/07:30pm 11.6 6.6 7.9 78 1.8 SW 24 46 13 25 1004.1 1004.1 1.2
27/07:09pm 11.9 6.2 8.4 79 1.7 SW 28 46 15 25 1003.8 1003.8 1.2
27/07:00pm 12.0 6.7 8.5 79 1.7 SW 26 44 14 24 1003.6 1003.6 1.2
27/06:42pm 12.3 6.8 9.0 80 1.7 SW 28 46 15 25 1003.0 1003.0 1.2
27/06:30pm 12.5 6.6 9.1 80 1.7 SW 30 43 16 23 1002.6 1002.6 1.2
27/06:03pm 12.9 7.6 9.9 82 1.5 SW 28 46 15 25 1002.1 1002.1 1.2
27/06:00pm 13.1 7.8 9.9 81 1.7 SW 28 41 15 22 1002.0 1002.0 1.2
27/05:30pm 13.2 8.6 9.8 80 1.7 SW 24 39 13 21 1001.5 1001.5 1.2
27/05:00pm 12.6 6.9 9.8 83 1.4 SW 30 44 16 24 1001.0 1001.0 1.2
27/04:30pm 13.7 7.9 9.6 76 2.1 SW 30 43 16 23 1000.4 1000.4 0.6
27/04:14pm 14.8 9.5 9.8 72 2.6 WSW 28 48 15 26 999.9 999.9 0.6
27/04:00pm 15.0 10.1 9.8 71 2.7 WSW 26 44 14 24 999.8 999.8 0.6
27/03:30pm 14.1 9.7 10.3 78 2.0 WSW 24 44 13 24 999.5 999.5 0.6
27/03:00pm 14.4 9.0 9.6 73 2.5 W 28 50 15 27 999.4 999.4 0.4
27/02:39pm 15.0 9.5 9.1 68 3.0 W 28 46 15 25 999.2 999.2 0.4
27/02:30pm 14.5 9.0 9.1 70 2.8 W 28 44 15 24 999.4 999.4 0.4
27/02:00pm 13.1 7.4 9.9 81 1.7 WSW 30 52 16 28 999.5 999.5 0.4
27/01:30pm 13.7 8.1 10.1 79 1.9 W 30 48 16 26 999.5 999.5 0.0
27/01:01pm 14.6 9.4 10.2 75 2.3 W 28 46 15 25 999.9 999.9 0.0
27/01:00pm 14.7 9.7 10.9 78 2.0 W 28 43 15 23 999.9 999.9 0.0
27/12:39pm 13.9 8.6 9.7 76 2.2 W 28 46 15 25 1000.1 1000.1 0.0
27/12:30pm 13.1 8.5 9.5 79 1.8 W 24 41 13 22 1000.2 1000.2 0.0
27/12:00pm 14.1 8.9 8.7 70 2.7 W 26 44 14 24 1000.6 1000.6 0.0
27/11:30am 13.9 8.6 8.5 70 2.7 WSW 26 39 14 21 1000.5 1000.5 0.0
27/11:09am 13.7 7.3 8.5 71 2.6 W 32 56 17 30 1000.6 1000.6 0.0
27/11:00am 14.5 8.4 8.2 66 3.2 WSW 30 44 16 24 1000.5 1000.5 0.0
27/10:30am 14.4 10.0 9.0 70 2.7 WSW 22 39 12 21 1000.4 1000.4 0.0
27/10:00am 14.1 10.4 9.5 74 2.4 WSW 19 32 10 17 1000.3 1000.3 0.0
27/09:30am 13.5 9.9 9.7 78 1.9 WSW 19 35 10 19 1000.3 1000.3 0.0
27/09:00am 13.6 10.0 10.4 81 1.7 WSW 20 37 11 20 1000.2 1000.2 20.4
27/08:30am 13.7 10.1 9.9 78 2.0 WNW 19 30 10 16 1000.1 1000.1 20.4
27/08:00am 13.7 9.9 9.7 77 2.1 WNW 20 32 11 17 1000.3 1000.3 20.2

Other Formats:

Comma delimited format used in spreadsheet applications
http://www.bom.gov.au/fwo/IDW60801/IDW60801.94604.axf

JavaScript Object Notation format (JSON) in row-major order
http://www.bom.gov.au/fwo/IDW60801/IDW60801.94604.json